sensor_id;sensor_type;location;lat;lon;timestamp;pressure;altitude;pressure_sealevel;temperature;humidity
52535;BME280;38443;53.164;5.802;2022-08-03T00:02:21;101551.00;;;18.35;78.18
52535;BME280;38443;53.164;5.802;2022-08-03T00:04:46;101551.00;;;18.35;78.56
52535;BME280;38443;53.164;5.802;2022-08-03T00:07:12;101547.50;;;18.33;78.47
52535;BME280;38443;53.164;5.802;2022-08-03T00:09:37;101546.63;;;18.32;78.39
52535;BME280;38443;53.164;5.802;2022-08-03T00:12:03;101536.72;;;18.31;78.77
52535;BME280;38443;53.164;5.802;2022-08-03T00:14:28;101534.19;;;18.28;78.83
52535;BME280;38443;53.164;5.802;2022-08-03T00:16:54;101540.47;;;18.29;78.90
52535;BME280;38443;53.164;5.802;2022-08-03T00:19:19;101545.88;;;18.29;78.84
52535;BME280;38443;53.164;5.802;2022-08-03T00:21:44;101541.41;;;18.28;78.79
52535;BME280;38443;53.164;5.802;2022-08-03T00:24:10;101541.50;;;18.26;79.09
52535;BME280;38443;53.164;5.802;2022-08-03T00:26:36;101538.00;;;18.24;79.03
52535;BME280;38443;53.164;5.802;2022-08-03T00:29:02;101546.94;;;18.26;78.95
52535;BME280;38443;53.164;5.802;2022-08-03T00:31:27;101534.31;;;18.25;79.00
52535;BME280;38443;53.164;5.802;2022-08-03T00:33:52;101529.94;;;18.23;78.91
52535;BME280;38443;53.164;5.802;2022-08-03T00:36:18;101530.97;;;18.20;79.21
52535;BME280;38443;53.164;5.802;2022-08-03T00:38:43;101530.97;;;18.20;79.02
52535;BME280;38443;53.164;5.802;2022-08-03T00:41:08;101530.97;;;18.20;78.98
52535;BME280;38443;53.164;5.802;2022-08-03T00:43:34;101525.63;;;18.19;79.22
52535;BME280;38443;53.164;5.802;2022-08-03T00:45:59;101528.34;;;18.19;79.40
52535;BME280;38443;53.164;5.802;2022-08-03T00:48:24;101527.53;;;18.17;79.23
52535;BME280;38443;53.164;5.802;2022-08-03T00:50:50;101525.78;;;18.16;79.44
52535;BME280;38443;53.164;5.802;2022-08-03T00:53:16;101520.41;;;18.14;79.23
52535;BME280;38443;53.164;5.802;2022-08-03T00:55:42;101516.84;;;18.13;79.35
52535;BME280;38443;53.164;5.802;2022-08-03T00:58:07;101514.31;;;18.10;79.56
52535;BME280;38443;53.164;5.802;2022-08-03T01:00:38;101507.97;;;18.10;79.71
52535;BME280;38443;53.164;5.802;2022-08-03T01:03:05;101514.31;;;18.10;79.59
52535;BME280;38443;53.164;5.802;2022-08-03T01:05:48;101511.72;;;18.07;79.99
52535;BME280;38443;53.164;5.802;2022-08-03T01:11:28;101507.59;;;18.00;80.23
52535;BME280;38443;53.164;5.802;2022-08-03T01:14:08;101508.47;;;18.01;79.98
52535;BME280;38443;53.164;5.802;2022-08-03T01:16:54;101513.00;;;18.00;80.56
52535;BME280;38443;53.164;5.802;2022-08-03T01:30:10;101500.56;;;17.96;80.81
52535;BME280;38443;53.164;5.802;2022-08-03T01:35:18;101501.44;;;17.97;80.81
52535;BME280;38443;53.164;5.802;2022-08-03T01:37:56;101499.69;;;17.96;81.16
52535;BME280;38443;53.164;5.802;2022-08-03T01:40:24;101498.75;;;17.97;80.73
52535;BME280;38443;53.164;5.802;2022-08-03T01:42:51;101493.31;;;17.97;80.58
52535;BME280;38443;53.164;5.802;2022-08-03T01:45:20;101493.38;;;17.95;80.56
52535;BME280;38443;53.164;5.802;2022-08-03T01:47:47;101493.38;;;17.95;80.78
52535;BME280;38443;53.164;5.802;2022-08-03T01:50:14;101487.97;;;17.95;80.88
52535;BME280;38443;53.164;5.802;2022-08-03T01:52:41;101491.63;;;17.94;80.81
52535;BME280;38443;53.164;5.802;2022-08-03T01:55:09;101484.47;;;17.93;80.99
52535;BME280;38443;53.164;5.802;2022-08-03T01:57:37;101489.88;;;17.93;80.95
52535;BME280;38443;53.164;5.802;2022-08-03T02:02:48;101478.25;;;17.91;81.26
52535;BME280;38443;53.164;5.802;2022-08-03T02:05:15;101483.72;;;17.89;81.10
52535;BME280;38443;53.164;5.802;2022-08-03T02:07:44;101481.09;;;17.88;81.03
52535;BME280;38443;53.164;5.802;2022-08-03T02:10:12;101484.78;;;17.87;81.11
52535;BME280;38443;53.164;5.802;2022-08-03T02:12:39;101477.59;;;17.86;80.93
52535;BME280;38443;53.164;5.802;2022-08-03T02:15:05;101477.59;;;17.86;81.13
52535;BME280;38443;53.164;5.802;2022-08-03T02:17:33;101483.97;;;17.85;81.16
52535;BME280;38443;53.164;5.802;2022-08-03T02:19:59;101470.44;;;17.85;81.21
52535;BME280;38443;53.164;5.802;2022-08-03T02:22:27;101472.31;;;17.83;81.20
52535;BME280;38443;53.164;5.802;2022-08-03T02:24:54;101475.91;;;17.83;81.21
52535;BME280;38443;53.164;5.802;2022-08-03T02:27:25;101476.78;;;17.84;81.75
52535;BME280;38443;53.164;5.802;2022-08-03T02:30:00;101485.84;;;17.83;81.51
52535;BME280;38443;53.164;5.802;2022-08-03T02:32:33;101466.97;;;17.81;82.10
52535;BME280;38443;53.164;5.802;2022-08-03T02:35:01;101467.81;;;17.82;81.50
52535;BME280;38443;53.164;5.802;2022-08-03T02:37:30;101466.88;;;17.83;81.61
52535;BME280;38443;53.164;5.802;2022-08-03T02:40:00;101457.97;;;17.81;81.57
52535;BME280;38443;53.164;5.802;2022-08-03T02:42:27;101461.53;;;17.81;81.27
52535;BME280;38443;53.164;5.802;2022-08-03T02:44:55;101465.22;;;17.80;81.30
52535;BME280;38443;53.164;5.802;2022-08-03T02:47:21;101466.97;;;17.81;81.60
52535;BME280;38443;53.164;5.802;2022-08-03T02:49:49;101462.50;;;17.80;81.65
52535;BME280;38443;53.164;5.802;2022-08-03T02:52:16;101458.91;;;17.80;81.23
52535;BME280;38443;53.164;5.802;2022-08-03T02:54:43;101456.19;;;17.80;81.65
52535;BME280;38443;53.164;5.802;2022-08-03T02:57:10;101459.81;;;17.80;81.51
52535;BME280;38443;53.164;5.802;2022-08-03T02:59:37;101450.88;;;17.78;81.46
52535;BME280;38443;53.164;5.802;2022-08-03T03:02:04;101458.09;;;17.78;81.30
52535;BME280;38443;53.164;5.802;2022-08-03T03:04:30;101453.66;;;17.77;81.62
52535;BME280;38443;53.164;5.802;2022-08-03T03:06:56;101459.13;;;17.75;81.71
52535;BME280;38443;53.164;5.802;2022-08-03T03:09:23;101457.41;;;17.74;81.58
52535;BME280;38443;53.164;5.802;2022-08-03T03:11:50;101457.47;;;17.72;81.64
52535;BME280;38443;53.164;5.802;2022-08-03T03:14:17;101458.41;;;17.71;81.95
52535;BME280;38443;53.164;5.802;2022-08-03T03:16:44;101456.66;;;17.70;81.91
52535;BME280;38443;53.164;5.802;2022-08-03T03:19:12;101460.25;;;17.71;82.13
52535;BME280;38443;53.164;5.802;2022-08-03T03:21:38;101454.03;;;17.69;82.25
52535;BME280;38443;53.164;5.802;2022-08-03T03:24:05;101460.38;;;17.68;82.25
52535;BME280;38443;53.164;5.802;2022-08-03T03:26:30;101457.78;;;17.66;81.92
52535;BME280;38443;53.164;5.802;2022-08-03T03:28:57;101447.88;;;17.65;82.38
52535;BME280;38443;53.164;5.802;2022-08-03T03:31:23;101456.00;;;17.65;82.30
52535;BME280;38443;53.164;5.802;2022-08-03T03:33:48;101464.13;;;17.65;82.65
52535;BME280;38443;53.164;5.802;2022-08-03T03:36:14;101465.09;;;17.64;82.49
52535;BME280;38443;53.164;5.802;2022-08-03T03:38:39;101459.75;;;17.63;82.55
52535;BME280;38443;53.164;5.802;2022-08-03T03:41:05;101460.63;;;17.63;82.37
52535;BME280;38443;53.164;5.802;2022-08-03T03:43:30;101454.25;;;17.64;82.42
52535;BME280;38443;53.164;5.802;2022-08-03T03:45:57;101461.41;;;17.65;82.56
52535;BME280;38443;53.164;5.802;2022-08-03T03:48:23;101451.63;;;17.63;82.46
52535;BME280;38443;53.164;5.802;2022-08-03T03:50:49;101457.03;;;17.63;82.13
52535;BME280;38443;53.164;5.802;2022-08-03T03:53:15;101450.75;;;17.62;82.75
52535;BME280;38443;53.164;5.802;2022-08-03T03:55:40;101454.34;;;17.63;82.43
52535;BME280;38443;53.164;5.802;2022-08-03T03:58:06;101459.75;;;17.63;82.84
52535;BME280;38443;53.164;5.802;2022-08-03T04:00:32;101467.81;;;17.64;82.51
52535;BME280;38443;53.164;5.802;2022-08-03T04:02:57;101464.28;;;17.62;82.91
52535;BME280;38443;53.164;5.802;2022-08-03T04:05:23;101463.31;;;17.63;82.65
52535;BME280;38443;53.164;5.802;2022-08-03T04:08:15;101467.88;;;17.63;82.62
52535;BME280;38443;53.164;5.802;2022-08-03T04:11:12;101467.94;;;17.61;83.00
52535;BME280;38443;53.164;5.802;2022-08-03T04:13:42;101464.28;;;17.62;83.03
52535;BME280;38443;53.164;5.802;2022-08-03T04:16:11;101470.56;;;17.63;82.58
52535;BME280;38443;53.164;5.802;2022-08-03T04:18:38;101475.13;;;17.62;82.63
52535;BME280;38443;53.164;5.802;2022-08-03T04:21:07;101471.44;;;17.63;82.85
52535;BME280;38443;53.164;5.802;2022-08-03T04:23:36;101478.63;;;17.64;82.54
52535;BME280;38443;53.164;5.802;2022-08-03T04:26:02;101466.91;;;17.64;83.00
52535;BME280;38443;53.164;5.802;2022-08-03T04:28:31;101475.81;;;17.66;83.02
52535;BME280;38443;53.164;5.802;2022-08-03T04:30:58;101470.41;;;17.66;82.89
52535;BME280;38443;53.164;5.802;2022-08-03T04:33:25;101474.88;;;17.67;82.88
52535;BME280;38443;53.164;5.802;2022-08-03T04:35:51;101469.41;;;17.68;83.03
52535;BME280;38443;53.164;5.802;2022-08-03T04:38:19;101472.00;;;17.70;83.00
52535;BME280;38443;53.164;5.802;2022-08-03T04:40:46;101471.06;;;17.71;83.01
52535;BME280;38443;53.164;5.802;2022-08-03T04:43:13;101476.41;;;17.72;83.19
52535;BME280;38443;53.164;5.802;2022-08-03T04:45:40;101476.25;;;17.75;83.05
52535;BME280;38443;53.164;5.802;2022-08-03T04:48:07;101479.75;;;17.78;82.94
52535;BME280;38443;53.164;5.802;2022-08-03T04:50:33;101469.72;;;17.80;83.09
52535;BME280;38443;53.164;5.802;2022-08-03T04:52:58;101482.28;;;17.82;83.22
52535;BME280;38443;53.164;5.802;2022-08-03T04:55:31;101472.31;;;17.83;83.46
52535;BME280;38443;53.164;5.802;2022-08-03T04:57:58;101477.59;;;17.86;83.02
52535;BME280;38443;53.164;5.802;2022-08-03T05:00:24;101482.00;;;17.88;83.24
52535;BME280;38443;53.164;5.802;2022-08-03T05:02:50;101488.09;;;17.92;83.01
52535;BME280;38443;53.164;5.802;2022-08-03T05:05:16;101485.34;;;17.93;82.89
52535;BME280;38443;53.164;5.802;2022-08-03T05:07:41;101477.13;;;17.95;83.00
52535;BME280;38443;53.164;5.802;2022-08-03T05:10:08;101486.94;;;17.98;83.11
52535;BME280;38443;53.164;5.802;2022-08-03T05:12:34;101476.81;;;18.01;83.20
52535;BME280;38443;53.164;5.802;2022-08-03T05:15:00;101485.75;;;18.03;83.14
52535;BME280;38443;53.164;5.802;2022-08-03T05:17:26;101478.34;;;18.07;82.69
52535;BME280;38443;53.164;5.802;2022-08-03T05:19:51;101486.31;;;18.10;82.80
52535;BME280;38443;53.164;5.802;2022-08-03T05:22:17;101490.63;;;18.14;82.96
52535;BME280;38443;53.164;5.802;2022-08-03T05:24:42;101490.41;;;18.19;82.75
52535;BME280;38443;53.164;5.802;2022-08-03T05:27:07;101497.50;;;18.21;82.74
52535;BME280;38443;53.164;5.802;2022-08-03T05:29:33;101493.59;;;18.27;82.40
52535;BME280;38443;53.164;5.802;2022-08-03T05:31:58;101495.19;;;18.31;82.80
52535;BME280;38443;53.164;5.802;2022-08-03T05:34:25;101487.78;;;18.34;82.32
52535;BME280;38443;53.164;5.802;2022-08-03T05:36:51;101492.91;;;18.41;82.28
52535;BME280;38443;53.164;5.802;2022-08-03T05:39:16;101478.28;;;18.43;82.50
52535;BME280;38443;53.164;5.802;2022-08-03T05:41:41;101484.25;;;18.50;82.39
52535;BME280;38443;53.164;5.802;2022-08-03T05:44:07;101490.41;;;18.53;82.21
52535;BME280;38443;53.164;5.802;2022-08-03T05:46:32;101491.13;;;18.57;82.02
52535;BME280;38443;53.164;5.802;2022-08-03T05:48:57;101496.22;;;18.63;82.21
52535;BME280;38443;53.164;5.802;2022-08-03T05:51:23;101493.25;;;18.68;82.00
52535;BME280;38443;53.164;5.802;2022-08-03T05:53:48;101502.91;;;18.73;81.72
52535;BME280;38443;53.164;5.802;2022-08-03T05:56:14;101490.00;;;18.79;81.61
52535;BME280;38443;53.164;5.802;2022-08-03T05:58:39;101486.13;;;18.84;81.58
52535;BME280;38443;53.164;5.802;2022-08-03T06:01:04;101488.66;;;18.87;81.29
52535;BME280;38443;53.164;5.802;2022-08-03T06:03:30;101493.81;;;18.92;81.25
52535;BME280;38443;53.164;5.802;2022-08-03T06:05:55;101491.66;;;18.99;81.28
52535;BME280;38443;53.164;5.802;2022-08-03T06:08:21;101486.84;;;19.04;81.02
52535;BME280;38443;53.164;5.802;2022-08-03T06:10:47;101485.72;;;19.08;81.00
52535;BME280;38443;53.164;5.802;2022-08-03T06:13:12;101485.38;;;19.14;80.87
52535;BME280;38443;53.164;5.802;2022-08-03T06:15:37;101485.16;;;19.19;80.36
52535;BME280;38443;53.164;5.802;2022-08-03T06:18:03;101486.56;;;19.26;80.50
52535;BME280;38443;53.164;5.802;2022-08-03T06:20:28;101497.97;;;19.32;80.18
52535;BME280;38443;53.164;5.802;2022-08-03T06:22:54;101497.50;;;19.40;80.13
52535;BME280;38443;53.164;5.802;2022-08-03T06:25:19;101489.72;;;19.50;79.90
52535;BME280;38443;53.164;5.802;2022-08-03T06:27:45;101492.81;;;19.60;79.84
52535;BME280;38443;53.164;5.802;2022-08-03T06:30:11;101490.44;;;19.69;79.76
52535;BME280;38443;53.164;5.802;2022-08-03T06:32:38;101499.84;;;19.80;79.23
52535;BME280;38443;53.164;5.802;2022-08-03T06:35:05;101495.53;;;19.91;78.89
52535;BME280;38443;53.164;5.802;2022-08-03T06:37:30;101490.88;;;20.09;78.87
52535;BME280;38443;53.164;5.802;2022-08-03T06:39:56;101495.28;;;20.57;78.09
52535;BME280;38443;53.164;5.802;2022-08-03T06:42:22;101490.56;;;21.05;76.98
52535;BME280;38443;53.164;5.802;2022-08-03T06:44:47;101492.41;;;21.89;75.21
52535;BME280;38443;53.164;5.802;2022-08-03T06:47:12;101486.28;;;22.53;73.90
52535;BME280;38443;53.164;5.802;2022-08-03T06:49:38;101488.38;;;22.75;72.86
52535;BME280;38443;53.164;5.802;2022-08-03T06:52:05;101496.81;;;23.36;71.58
52535;BME280;38443;53.164;5.802;2022-08-03T06:54:30;101498.09;;;23.93;70.09
52535;BME280;38443;53.164;5.802;2022-08-03T06:56:55;101491.88;;;24.15;69.11
52535;BME280;38443;53.164;5.802;2022-08-03T06:59:21;101489.63;;;23.72;68.74
52535;BME280;38443;53.164;5.802;2022-08-03T07:01:46;101489.63;;;23.22;69.23
52535;BME280;38443;53.164;5.802;2022-08-03T07:04:11;101496.78;;;22.97;69.24
52535;BME280;38443;53.164;5.802;2022-08-03T07:06:37;101503.91;;;22.74;69.59
52535;BME280;38443;53.164;5.802;2022-08-03T07:09:03;101501.38;;;22.71;69.59
52535;BME280;38443;53.164;5.802;2022-08-03T07:11:28;101499.09;;;22.90;68.68
52535;BME280;38443;53.164;5.802;2022-08-03T07:13:54;101496.16;;;23.32;68.05
52535;BME280;38443;53.164;5.802;2022-08-03T07:16:21;101495.16;;;23.33;67.53
52535;BME280;38443;53.164;5.802;2022-08-03T07:18:46;101499.06;;;23.67;66.84
52535;BME280;38443;53.164;5.802;2022-08-03T07:21:11;101490.91;;;24.16;65.81
52535;BME280;38443;53.164;5.802;2022-08-03T07:23:37;101495.59;;;24.73;64.29
52535;BME280;38443;53.164;5.802;2022-08-03T07:26:03;101502.84;;;24.97;63.92
52535;BME280;38443;53.164;5.802;2022-08-03T07:28:28;101507.91;;;25.48;62.60
52535;BME280;38443;53.164;5.802;2022-08-03T07:30:54;101498.00;;;25.91;61.49
52535;BME280;38443;53.164;5.802;2022-08-03T07:33:19;101514.38;;;26.13;61.74
52535;BME280;38443;53.164;5.802;2022-08-03T07:35:45;101509.31;;;26.09;61.11
52535;BME280;38443;53.164;5.802;2022-08-03T07:38:10;101519.94;;;25.91;60.75
52535;BME280;38443;53.164;5.802;2022-08-03T07:40:36;101515.69;;;25.86;60.76
52535;BME280;38443;53.164;5.802;2022-08-03T07:43:01;101506.50;;;25.76;60.12
52535;BME280;38443;53.164;5.802;2022-08-03T07:45:28;101521.22;;;25.64;60.10
52535;BME280;38443;53.164;5.802;2022-08-03T07:47:54;101513.75;;;25.55;59.87
52535;BME280;38443;53.164;5.802;2022-08-03T07:50:20;101518.59;;;25.62;59.75
52535;BME280;38443;53.164;5.802;2022-08-03T07:52:45;101519.56;;;25.61;59.71
52535;BME280;38443;53.164;5.802;2022-08-03T07:55:17;101516.97;;;25.60;59.53
52535;BME280;38443;53.164;5.802;2022-08-03T07:57:43;101519.38;;;25.42;59.89
52535;BME280;38443;53.164;5.802;2022-08-03T08:00:17;101514.59;;;25.66;58.50
52535;BME280;38443;53.164;5.802;2022-08-03T08:02:44;101522.56;;;25.92;58.97
52535;BME280;38443;53.164;5.802;2022-08-03T08:05:10;101517.78;;;26.05;58.72
52535;BME280;38443;53.164;5.802;2022-08-03T08:07:37;101529.66;;;26.06;58.83
52535;BME280;38443;53.164;5.802;2022-08-03T08:10:04;101523.06;;;25.86;58.84
52535;BME280;38443;53.164;5.802;2022-08-03T08:12:30;101528.69;;;25.39;59.76
52535;BME280;38443;53.164;5.802;2022-08-03T08:14:55;101528.84;;;24.91;60.69
52535;BME280;38443;53.164;5.802;2022-08-03T08:17:20;101531.38;;;24.94;60.62
52535;BME280;38443;53.164;5.802;2022-08-03T08:19:46;101523.59;;;25.35;60.16
52535;BME280;38443;53.164;5.802;2022-08-03T08:22:11;101515.34;;;25.91;58.49
52535;BME280;38443;53.164;5.802;2022-08-03T08:24:36;101530.09;;;26.22;58.18
52535;BME280;38443;53.164;5.802;2022-08-03T08:27:02;101537.53;;;26.32;58.09
52535;BME280;38443;53.164;5.802;2022-08-03T08:29:27;101533.06;;;26.52;57.13
52535;BME280;38443;53.164;5.802;2022-08-03T08:31:52;101528.47;;;26.52;57.30
52535;BME280;38443;53.164;5.802;2022-08-03T08:34:18;101530.22;;;26.21;57.87
52535;BME280;38443;53.164;5.802;2022-08-03T08:36:43;101535.09;;;26.17;57.99
52535;BME280;38443;53.164;5.802;2022-08-03T08:39:08;101531.63;;;26.04;57.85
52535;BME280;38443;53.164;5.802;2022-08-03T08:41:34;101529.44;;;26.30;57.34
52535;BME280;38443;53.164;5.802;2022-08-03T08:44:00;101531.44;;;26.28;57.29
52535;BME280;38443;53.164;5.802;2022-08-03T08:46:26;101533.91;;;26.31;57.56
52535;BME280;38443;53.164;5.802;2022-08-03T08:48:52;101525.78;;;26.41;57.08
52535;BME280;38443;53.164;5.802;2022-08-03T08:51:20;101520.31;;;26.62;56.85
52535;BME280;38443;53.164;5.802;2022-08-03T08:53:49;101525.56;;;26.65;55.63
52535;BME280;38443;53.164;5.802;2022-08-03T08:56:15;101526.69;;;26.83;56.08
52535;BME280;38443;53.164;5.802;2022-08-03T08:58:50;101529.84;;;26.79;54.97
52535;BME280;38443;53.164;5.802;2022-08-03T09:01:19;101538.22;;;26.77;54.75
52535;BME280;38443;53.164;5.802;2022-08-03T09:03:46;101533.56;;;26.57;56.55
52535;BME280;38443;53.164;5.802;2022-08-03T09:06:11;101529.38;;;26.41;56.23
52535;BME280;38443;53.164;5.802;2022-08-03T09:08:37;101535.16;;;26.38;56.42
52535;BME280;38443;53.164;5.802;2022-08-03T09:11:02;101538.16;;;26.24;56.73
52535;BME280;38443;53.164;5.802;2022-08-03T09:13:28;101533.81;;;26.21;56.87
52535;BME280;38443;53.164;5.802;2022-08-03T09:16:13;101536.09;;;26.16;55.88
52535;BME280;38443;53.164;5.802;2022-08-03T09:18:41;101540.75;;;25.93;57.64
52535;BME280;38443;53.164;5.802;2022-08-03T09:21:20;101545.25;;;25.94;55.92
52535;BME280;38443;53.164;5.802;2022-08-03T09:23:48;101540.25;;;25.77;57.41
52535;BME280;38443;53.164;5.802;2022-08-03T09:26:25;101545.88;;;25.41;57.65
52535;BME280;38443;53.164;5.802;2022-08-03T09:28:58;101553.25;;;25.41;58.23
52535;BME280;38443;53.164;5.802;2022-08-03T09:31:41;101544.22;;;25.16;58.72
52535;BME280;38443;53.164;5.802;2022-08-03T09:34:09;101544.94;;;24.96;59.63
52535;BME280;38443;53.164;5.802;2022-08-03T09:39:10;101553.00;;;25.33;58.42
52535;BME280;38443;53.164;5.802;2022-08-03T09:41:41;101548.25;;;25.35;58.93
52535;BME280;38443;53.164;5.802;2022-08-03T09:44:06;101553.88;;;25.44;58.82
52535;BME280;38443;53.164;5.802;2022-08-03T09:46:50;101554.94;;;25.08;59.03
52535;BME280;38443;53.164;5.802;2022-08-03T09:49:15;101557.88;;;24.94;59.88
52535;BME280;38443;53.164;5.802;2022-08-03T09:51:42;101568.69;;;24.84;59.92
52535;BME280;38443;53.164;5.802;2022-08-03T09:54:07;101570.69;;;24.93;59.94
52535;BME280;38443;53.164;5.802;2022-08-03T09:56:44;101560.16;;;25.00;59.76
52535;BME280;38443;53.164;5.802;2022-08-03T09:59:11;101567.84;;;24.95;59.79
52535;BME280;38443;53.164;5.802;2022-08-03T10:01:37;101560.88;;;24.91;59.90
52535;BME280;38443;53.164;5.802;2022-08-03T10:04:10;101558.28;;;25.12;60.07
52535;BME280;38443;53.164;5.802;2022-08-03T10:06:36;101559.44;;;25.32;59.27
52535;BME280;38443;53.164;5.802;2022-08-03T10:09:10;101566.44;;;25.24;59.07
52535;BME280;38443;53.164;5.802;2022-08-03T10:11:37;101554.19;;;25.17;59.86
52535;BME280;38443;53.164;5.802;2022-08-03T10:14:04;101565.25;;;25.16;59.86
52535;BME280;38443;53.164;5.802;2022-08-03T10:16:37;101554.44;;;25.14;59.61
52535;BME280;38443;53.164;5.802;2022-08-03T10:19:06;101554.06;;;25.19;59.59
52535;BME280;38443;53.164;5.802;2022-08-03T10:21:37;101567.41;;;25.23;60.00
52535;BME280;38443;53.164;5.802;2022-08-03T10:24:05;101554.22;;;25.28;59.38
52535;BME280;38443;53.164;5.802;2022-08-03T10:26:33;101555.22;;;25.39;59.42
52535;BME280;38443;53.164;5.802;2022-08-03T10:28:59;101552.88;;;25.34;59.24
52535;BME280;38443;53.164;5.802;2022-08-03T10:31:32;101558.22;;;25.36;58.99
52535;BME280;38443;53.164;5.802;2022-08-03T10:34:00;101557.84;;;25.29;59.68
52535;BME280;38443;53.164;5.802;2022-08-03T10:36:29;101560.69;;;25.27;59.37
52535;BME280;38443;53.164;5.802;2022-08-03T10:38:56;101557.03;;;25.16;59.48
52535;BME280;38443;53.164;5.802;2022-08-03T10:41:28;101568.63;;;25.19;59.51
52535;BME280;38443;53.164;5.802;2022-08-03T10:44:05;101554.06;;;25.19;59.34
52535;BME280;38443;53.164;5.802;2022-08-03T10:46:33;101553.72;;;25.23;59.07
52535;BME280;38443;53.164;5.802;2022-08-03T10:49:00;101549.63;;;25.29;59.07
52535;BME280;38443;53.164;5.802;2022-08-03T10:51:27;101544.66;;;25.34;58.77
52535;BME280;38443;53.164;5.802;2022-08-03T10:53:57;101547.53;;;25.44;58.78
52535;BME280;38443;53.164;5.802;2022-08-03T10:56:37;101547.50;;;25.33;57.61
52535;BME280;38443;53.164;5.802;2022-08-03T11:02:15;101543.09;;;25.19;58.55
52535;BME280;38443;53.164;5.802;2022-08-03T11:04:41;101547.38;;;25.23;58.53
52535;BME280;38443;53.164;5.802;2022-08-03T11:09:41;101539.66;;;25.51;58.20
52535;BME280;38443;53.164;5.802;2022-08-03T11:12:24;101545.91;;;25.64;57.42
52535;BME280;38443;53.164;5.802;2022-08-03T11:14:52;101549.63;;;25.63;57.33
52535;BME280;38443;53.164;5.802;2022-08-03T11:17:18;101547.28;;;25.58;57.91
52535;BME280;38443;53.164;5.802;2022-08-03T11:19:52;101547.50;;;25.55;56.88
52535;BME280;38443;53.164;5.802;2022-08-03T11:22:19;101548.75;;;25.62;57.73
52535;BME280;38443;53.164;5.802;2022-08-03T11:35:12;101547.75;;;25.75;58.06
52535;BME280;38443;53.164;5.802;2022-08-03T11:38:07;101543.25;;;25.85;56.18
52535;BME280;38443;53.164;5.802;2022-08-03T11:43:00;101543.50;;;26.04;56.80
52535;BME280;38443;53.164;5.802;2022-08-03T11:45:26;101546.56;;;26.22;56.49
52535;BME280;38443;53.164;5.802;2022-08-03T11:47:53;101555.69;;;26.44;55.85
52535;BME280;38443;53.164;5.802;2022-08-03T11:50:20;101560.06;;;26.46;55.72
52535;BME280;38443;53.164;5.802;2022-08-03T11:52:47;101557.69;;;26.42;56.20
52535;BME280;38443;53.164;5.802;2022-08-03T11:55:15;101562.16;;;26.54;55.87
52535;BME280;38443;53.164;5.802;2022-08-03T11:57:41;101561.59;;;26.72;55.18
52535;BME280;38443;53.164;5.802;2022-08-03T12:03:06;101564.50;;;26.70;54.85
52535;BME280;38443;53.164;5.802;2022-08-03T12:08:12;101561.78;;;26.80;54.68
52535;BME280;38443;53.164;5.802;2022-08-03T12:10:39;101560.13;;;26.67;54.73
52535;BME280;38443;53.164;5.802;2022-08-03T12:13:05;101560.69;;;26.82;54.78
52535;BME280;38443;53.164;5.802;2022-08-03T12:15:33;101561.00;;;26.89;55.21
52535;BME280;38443;53.164;5.802;2022-08-03T12:18:00;101568.75;;;26.84;54.61
52535;BME280;38443;53.164;5.802;2022-08-03T12:20:28;101564.06;;;26.96;54.40
52535;BME280;38443;53.164;5.802;2022-08-03T12:22:54;101560.78;;;27.02;54.70
52535;BME280;38443;53.164;5.802;2022-08-03T12:25:24;101567.63;;;27.08;54.51
52535;BME280;38443;53.164;5.802;2022-08-03T12:27:51;101558.03;;;27.23;54.00
52535;BME280;38443;53.164;5.802;2022-08-03T12:30:17;101564.81;;;27.40;53.72
52535;BME280;38443;53.164;5.802;2022-08-03T12:32:43;101555.00;;;27.47;53.30
52535;BME280;38443;53.164;5.802;2022-08-03T12:35:09;101555.75;;;27.49;53.49
52535;BME280;38443;53.164;5.802;2022-08-03T12:37:35;101560.03;;;27.42;53.85
52535;BME280;38443;53.164;5.802;2022-08-03T12:40:02;101555.50;;;27.31;53.36
52535;BME280;38443;53.164;5.802;2022-08-03T12:42:34;101559.75;;;27.14;53.80
52535;BME280;38443;53.164;5.802;2022-08-03T12:45:26;101563.28;;;27.05;52.80
52535;BME280;38443;53.164;5.802;2022-08-03T12:47:59;101565.91;;;27.06;53.45
52535;BME280;38443;53.164;5.802;2022-08-03T12:52:54;101562.41;;;27.25;53.55
52535;BME280;38443;53.164;5.802;2022-08-03T12:55:20;101558.50;;;27.28;53.80
52535;BME280;38443;53.164;5.802;2022-08-03T12:57:46;101570.72;;;27.14;53.67
52535;BME280;38443;53.164;5.802;2022-08-03T13:00:18;101564.28;;;27.04;53.73
52535;BME280;38443;53.164;5.802;2022-08-03T13:02:44;101556.94;;;27.04;53.82
52535;BME280;38443;53.164;5.802;2022-08-03T13:05:11;101560.53;;;27.05;53.96
52535;BME280;38443;53.164;5.802;2022-08-03T13:07:43;101561.72;;;27.12;53.23
52535;BME280;38443;53.164;5.802;2022-08-03T13:10:10;101554.44;;;27.01;53.51
52535;BME280;38443;53.164;5.802;2022-08-03T13:12:49;101566.25;;;26.92;53.95
52535;BME280;38443;53.164;5.802;2022-08-03T13:15:14;101556.03;;;27.04;53.83
52535;BME280;38443;53.164;5.802;2022-08-03T13:17:40;101550.53;;;27.04;54.00
52535;BME280;38443;53.164;5.802;2022-08-03T13:20:06;101557.47;;;26.98;54.01
52535;BME280;38443;53.164;5.802;2022-08-03T13:22:32;101558.28;;;27.20;54.37
52535;BME280;38443;53.164;5.802;2022-08-03T13:24:59;101553.44;;;27.23;53.88
52535;BME280;38443;53.164;5.802;2022-08-03T13:27:26;101558.13;;;27.33;53.83
52535;BME280;38443;53.164;5.802;2022-08-03T13:29:52;101557.03;;;27.45;53.76
52535;BME280;38443;53.164;5.802;2022-08-03T13:32:19;101549.94;;;27.52;53.43
52535;BME280;38443;53.164;5.802;2022-08-03T13:34:45;101554.69;;;27.40;53.65
52535;BME280;38443;53.164;5.802;2022-08-03T13:37:10;101549.03;;;27.42;53.98
52535;BME280;38443;53.164;5.802;2022-08-03T13:39:37;101550.19;;;27.39;53.71
52535;BME280;38443;53.164;5.802;2022-08-03T13:42:02;101557.53;;;27.29;53.53